LIPK/FRL METAR and TAF weather

Enter ICAO airport designator
Station Type Date Time Source
LIPK METAR 2019/04/24 15:50 UTC NOAA

LIPK 241550Z 10006KT 9999 FEW015CB SCT025 21/13 Q1014


Station Type Date Time Source
LIPK Decoded METAR 2019/04/24 15:50 UTC NOAA

Forli, Italy (LIPK) 44-12N 012-04E 32M
Apr 24, 2019 - 11:50 AM EDT / 2019.04.24 1550 UTC
Wind: from the E (100 degrees) at 7 MPH (6 KT):0
Visibility: greater than 7 mile(s):0
Sky conditions: partly cloudy
Weather: Cumulonimbus clouds observed
Temperature: 69 F (21 C)
Dew Point: 55 F (13 C)
Relative Humidity: 60%
Pressure (altimeter): 29.94 in. Hg (1014 hPa)
ob: LIPK 241550Z 10006KT 9999 FEW015CB SCT025 21/13 Q1014
cycle: 16

Station Type Date Time Source
LIPK TAF 2015/04/01 12:08 UTC NOAA

TAF LIPK 011301Z 0112/0212 30020G32KT CAVOK
BECMG 0115/0117 30012KT
BECMG 0117/0119 VRB05KT

Example: see airport list